This is the latest recevied weather packets stored in our database for station/object VA2DG-13. If no packets are shown the sender has not sent any weather packets the latest 10 day(s).
| Time | Temp. | Humidity | Pressure | Rain* | Wind** | Luminosity | Snow |
|---|---|---|---|---|---|---|---|
| 1777102211 | 2.78° C | 57% | 1016.2 hPa | 0 mm | - | - | - |
| 1777100110 | 3.33° C | 56% | 1015.9 hPa | 0 mm | - | - | - |
| 1777099510 | 3.33° C | 55% | 1016 hPa | 0 mm | - | - | - |
| 1777092011 | 4.44° C | 46% | 1015.6 hPa | 0 mm | - | - | - |
| 1777090211 | 5° C | 45% | 1015.6 hPa | 0 mm | - | - | - |
| 1777089911 | 5° C | 44% | 1015.6 hPa | 0 mm | - | - | - |
| 1777086310 | 6.11° C | 40% | 1016 hPa | 0 mm | - | - | - |
| 1777083910 | 6.67° C | 38% | 1015.8 hPa | 0 mm | - | - | - |
| 1777082711 | 6.67° C | 38% | 1015.6 hPa | 0 mm | - | - | - |
| 1777082110 | 6.67° C | 39% | 1015.5 hPa | 0 mm | - | - | - |
| 1777080911 | 7.22° C | 39% | 1015.6 hPa | 0 mm | - | - | - |
| 1777079711 | 7.22° C | 40% | 1015.3 hPa | 0 mm | - | - | - |
| 1777078511 | 7.78° C | 40% | 1015.2 hPa | 0 mm | - | - | - |
| 1777078211 | 7.78° C | 40% | 1015.1 hPa | 0 mm | - | - | - |
| 1777077911 | 7.78° C | 40% | 1015 hPa | 0 mm | - | - | - |
| 1777077012 | 8.33° C | 39% | 1014.9 hPa | 0 mm | - | - | - |
| 1777076110 | 8.33° C | 38% | 1014.5 hPa | 0 mm | - | - | - |
| 1777075811 | 8.89° C | 38% | 1014.4 hPa | 0 mm | - | - | - |
| 1777074611 | 9.44° C | 36% | 1013.9 hPa | 0 mm | - | - | - |
| 1777068611 | 11.11° C | 32% | 1012.8 hPa | 0 mm | - | - | - |
| 1777067411 | 11.11° C | 32% | 1012.4 hPa | 0 mm | - | - | - |
| 1777065011 | 11.67° C | 31% | 1011.8 hPa | 0 mm | - | - | - |
| 1777064111 | 11.67° C | 31% | 1011.6 hPa | 0 mm | - | - | - |
| 1777063211 | 11.11° C | 32% | 1011.5 hPa | 0 mm | - | - | - |
| 1777062911 | 11.67° C | 31% | 1011.5 hPa | 0 mm | - | - | - |
* Rain latest hour (hover to see other rain measurements)
** Current wind speed in m/s (hover to see current wind gust speed)